sensor_id;sensor_type;location;lat;lon;timestamp;P1;durP1;ratioP1;P2;durP2;ratioP2
3407;SDS011;1717;50.240;8.406;2024-03-08T00:00:28;23.57;;;15.50;;
3407;SDS011;1717;50.240;8.406;2024-03-08T00:02:57;22.40;;;15.67;;
3407;SDS011;1717;50.240;8.406;2024-03-08T00:05:27;22.97;;;15.43;;
3407;SDS011;1717;50.240;8.406;2024-03-08T00:07:55;25.73;;;15.40;;
3407;SDS011;1717;50.240;8.406;2024-03-08T00:10:22;23.13;;;14.80;;
3407;SDS011;1717;50.240;8.406;2024-03-08T00:12:49;22.27;;;15.67;;
3407;SDS011;1717;50.240;8.406;2024-03-08T00:15:18;19.50;;;14.80;;
3407;SDS011;1717;50.240;8.406;2024-03-08T00:17:45;24.23;;;13.77;;
3407;SDS011;1717;50.240;8.406;2024-03-08T00:20:12;23.87;;;15.87;;
3407;SDS011;1717;50.240;8.406;2024-03-08T00:22:39;24.70;;;16.30;;
3407;SDS011;1717;50.240;8.406;2024-03-08T00:25:08;22.50;;;15.40;;
3407;SDS011;1717;50.240;8.406;2024-03-08T00:27:35;22.50;;;15.27;;
3407;SDS011;1717;50.240;8.406;2024-03-08T00:30:02;24.03;;;14.80;;
3407;SDS011;1717;50.240;8.406;2024-03-08T00:32:30;21.67;;;15.87;;
3407;SDS011;1717;50.240;8.406;2024-03-08T00:34:57;31.60;;;18.33;;
3407;SDS011;1717;50.240;8.406;2024-03-08T00:37:24;22.00;;;15.00;;
3407;SDS011;1717;50.240;8.406;2024-03-08T00:39:51;25.70;;;16.50;;
3407;SDS011;1717;50.240;8.406;2024-03-08T00:42:20;23.93;;;16.50;;
3407;SDS011;1717;50.240;8.406;2024-03-08T00:44:47;22.40;;;15.63;;
3407;SDS011;1717;50.240;8.406;2024-03-08T00:47:16;20.70;;;15.90;;
3407;SDS011;1717;50.240;8.406;2024-03-08T00:49:43;28.83;;;16.97;;
3407;SDS011;1717;50.240;8.406;2024-03-08T00:52:10;22.20;;;15.53;;
3407;SDS011;1717;50.240;8.406;2024-03-08T00:54:36;22.20;;;15.70;;
3407;SDS011;1717;50.240;8.406;2024-03-08T00:57:03;23.00;;;16.30;;
3407;SDS011;1717;50.240;8.406;2024-03-08T00:59:33;26.37;;;16.63;;
3407;SDS011;1717;50.240;8.406;2024-03-08T01:01:59;23.73;;;16.70;;
3407;SDS011;1717;50.240;8.406;2024-03-08T01:04:27;22.70;;;16.40;;
3407;SDS011;1717;50.240;8.406;2024-03-08T01:06:55;22.60;;;16.53;;
3407;SDS011;1717;50.240;8.406;2024-03-08T01:09:22;20.23;;;14.03;;
3407;SDS011;1717;50.240;8.406;2024-03-08T01:11:49;22.63;;;15.70;;
3407;SDS011;1717;50.240;8.406;2024-03-08T01:14:16;23.90;;;14.77;;
3407;SDS011;1717;50.240;8.406;2024-03-08T01:16:44;23.10;;;15.60;;
3407;SDS011;1717;50.240;8.406;2024-03-08T01:19:11;23.87;;;14.93;;
3407;SDS011;1717;50.240;8.406;2024-03-08T01:21:38;22.83;;;16.07;;
3407;SDS011;1717;50.240;8.406;2024-03-08T01:24:05;27.13;;;16.60;;
3407;SDS011;1717;50.240;8.406;2024-03-08T01:26:32;21.77;;;14.67;;
3407;SDS011;1717;50.240;8.406;2024-03-08T01:29:00;24.37;;;16.07;;
3407;SDS011;1717;50.240;8.406;2024-03-08T01:31:28;21.53;;;15.70;;
3407;SDS011;1717;50.240;8.406;2024-03-08T01:33:56;24.43;;;16.67;;
3407;SDS011;1717;50.240;8.406;2024-03-08T01:36:23;24.10;;;16.43;;
3407;SDS011;1717;50.240;8.406;2024-03-08T01:38:50;22.20;;;17.03;;
3407;SDS011;1717;50.240;8.406;2024-03-08T01:41:18;22.50;;;14.70;;
3407;SDS011;1717;50.240;8.406;2024-03-08T01:43:45;24.63;;;17.00;;
3407;SDS011;1717;50.240;8.406;2024-03-08T01:46:12;23.33;;;14.10;;
3407;SDS011;1717;50.240;8.406;2024-03-08T01:48:42;26.83;;;16.57;;
3407;SDS011;1717;50.240;8.406;2024-03-08T01:51:11;24.63;;;16.30;;
3407;SDS011;1717;50.240;8.406;2024-03-08T01:53:40;22.10;;;15.93;;
3407;SDS011;1717;50.240;8.406;2024-03-08T01:56:10;24.27;;;15.30;;
3407;SDS011;1717;50.240;8.406;2024-03-08T01:58:37;25.60;;;16.80;;
3407;SDS011;1717;50.240;8.406;2024-03-08T02:01:07;23.37;;;16.50;;
3407;SDS011;1717;50.240;8.406;2024-03-08T02:03:34;27.10;;;16.77;;
3407;SDS011;1717;50.240;8.406;2024-03-08T02:06:01;25.20;;;16.23;;
3407;SDS011;1717;50.240;8.406;2024-03-08T02:08:31;24.40;;;16.40;;
3407;SDS011;1717;50.240;8.406;2024-03-08T02:10:59;25.10;;;16.00;;
3407;SDS011;1717;50.240;8.406;2024-03-08T02:13:27;24.37;;;16.63;;
3407;SDS011;1717;50.240;8.406;2024-03-08T02:15:55;30.10;;;18.40;;
3407;SDS011;1717;50.240;8.406;2024-03-08T02:18:24;22.40;;;15.30;;
3407;SDS011;1717;50.240;8.406;2024-03-08T02:20:53;27.83;;;19.13;;
3407;SDS011;1717;50.240;8.406;2024-03-08T02:23:20;21.97;;;15.13;;
3407;SDS011;1717;50.240;8.406;2024-03-08T02:25:48;25.17;;;17.33;;
3407;SDS011;1717;50.240;8.406;2024-03-08T02:28:15;23.20;;;16.03;;
3407;SDS011;1717;50.240;8.406;2024-03-08T02:30:43;21.73;;;15.63;;
3407;SDS011;1717;50.240;8.406;2024-03-08T02:33:13;21.37;;;16.87;;
3407;SDS011;1717;50.240;8.406;2024-03-08T02:35:42;27.20;;;16.90;;
3407;SDS011;1717;50.240;8.406;2024-03-08T02:38:12;25.30;;;16.10;;
3407;SDS011;1717;50.240;8.406;2024-03-08T02:40:41;25.83;;;16.70;;
3407;SDS011;1717;50.240;8.406;2024-03-08T02:43:08;27.97;;;17.27;;
3407;SDS011;1717;50.240;8.406;2024-03-08T02:45:35;26.60;;;17.47;;
3407;SDS011;1717;50.240;8.406;2024-03-08T02:48:02;25.97;;;15.37;;
3407;SDS011;1717;50.240;8.406;2024-03-08T02:50:29;25.53;;;16.03;;
3407;SDS011;1717;50.240;8.406;2024-03-08T02:52:56;32.57;;;18.13;;
3407;SDS011;1717;50.240;8.406;2024-03-08T02:55:24;26.17;;;16.43;;
3407;SDS011;1717;50.240;8.406;2024-03-08T02:57:51;24.97;;;16.80;;
3407;SDS011;1717;50.240;8.406;2024-03-08T03:00:19;27.63;;;17.43;;
3407;SDS011;1717;50.240;8.406;2024-03-08T03:02:48;29.00;;;17.90;;
3407;SDS011;1717;50.240;8.406;2024-03-08T03:05:17;24.90;;;16.80;;
3407;SDS011;1717;50.240;8.406;2024-03-08T03:07:45;23.57;;;15.93;;
3407;SDS011;1717;50.240;8.406;2024-03-08T03:10:12;27.13;;;16.37;;
3407;SDS011;1717;50.240;8.406;2024-03-08T03:12:43;30.27;;;17.90;;
3407;SDS011;1717;50.240;8.406;2024-03-08T03:15:11;25.57;;;16.03;;
3407;SDS011;1717;50.240;8.406;2024-03-08T03:17:38;27.23;;;16.97;;
3407;SDS011;1717;50.240;8.406;2024-03-08T03:20:06;28.43;;;17.63;;
3407;SDS011;1717;50.240;8.406;2024-03-08T03:22:37;24.00;;;16.13;;
3407;SDS011;1717;50.240;8.406;2024-03-08T03:25:06;35.10;;;18.10;;
3407;SDS011;1717;50.240;8.406;2024-03-08T03:27:34;28.47;;;18.27;;
3407;SDS011;1717;50.240;8.406;2024-03-08T03:30:03;27.93;;;15.60;;
3407;SDS011;1717;50.240;8.406;2024-03-08T03:32:58;27.17;;;17.20;;
3407;SDS011;1717;50.240;8.406;2024-03-08T03:35:25;25.50;;;16.10;;
3407;SDS011;1717;50.240;8.406;2024-03-08T03:37:52;24.90;;;16.30;;
3407;SDS011;1717;50.240;8.406;2024-03-08T03:40:27;29.57;;;18.30;;
3407;SDS011;1717;50.240;8.406;2024-03-08T03:42:54;24.27;;;15.77;;
3407;SDS011;1717;50.240;8.406;2024-03-08T03:45:21;28.50;;;17.23;;
3407;SDS011;1717;50.240;8.406;2024-03-08T03:47:48;28.87;;;16.87;;
3407;SDS011;1717;50.240;8.406;2024-03-08T03:50:16;28.70;;;15.40;;
3407;SDS011;1717;50.240;8.406;2024-03-08T03:52:44;25.83;;;17.50;;
3407;SDS011;1717;50.240;8.406;2024-03-08T03:55:11;24.90;;;16.17;;
3407;SDS011;1717;50.240;8.406;2024-03-08T03:57:38;29.53;;;18.17;;
3407;SDS011;1717;50.240;8.406;2024-03-08T04:00:06;29.20;;;17.40;;
3407;SDS011;1717;50.240;8.406;2024-03-08T04:02:35;27.37;;;17.70;;
3407;SDS011;1717;50.240;8.406;2024-03-08T04:05:03;29.43;;;16.63;;
3407;SDS011;1717;50.240;8.406;2024-03-08T04:07:32;26.83;;;17.87;;
3407;SDS011;1717;50.240;8.406;2024-03-08T04:09:59;29.33;;;16.70;;
3407;SDS011;1717;50.240;8.406;2024-03-08T04:12:26;26.57;;;17.57;;
3407;SDS011;1717;50.240;8.406;2024-03-08T04:14:54;26.90;;;17.43;;
3407;SDS011;1717;50.240;8.406;2024-03-08T04:17:21;29.50;;;17.80;;
3407;SDS011;1717;50.240;8.406;2024-03-08T04:19:49;27.67;;;17.70;;
3407;SDS011;1717;50.240;8.406;2024-03-08T04:22:15;27.60;;;17.50;;
3407;SDS011;1717;50.240;8.406;2024-03-08T04:24:44;26.47;;;17.97;;
3407;SDS011;1717;50.240;8.406;2024-03-08T04:27:11;27.90;;;17.60;;
3407;SDS011;1717;50.240;8.406;2024-03-08T04:29:38;31.30;;;18.93;;
3407;SDS011;1717;50.240;8.406;2024-03-08T04:32:05;30.30;;;18.10;;
3407;SDS011;1717;50.240;8.406;2024-03-08T04:34:34;30.03;;;17.87;;
3407;SDS011;1717;50.240;8.406;2024-03-08T04:37:01;29.83;;;18.40;;
3407;SDS011;1717;50.240;8.406;2024-03-08T04:39:29;30.97;;;18.87;;
3407;SDS011;1717;50.240;8.406;2024-03-08T04:41:58;32.60;;;18.70;;
3407;SDS011;1717;50.240;8.406;2024-03-08T04:44:28;33.57;;;20.27;;
3407;SDS011;1717;50.240;8.406;2024-03-08T04:46:55;26.33;;;17.60;;
3407;SDS011;1717;50.240;8.406;2024-03-08T04:49:22;32.13;;;19.10;;
3407;SDS011;1717;50.240;8.406;2024-03-08T04:51:48;31.57;;;18.80;;
3407;SDS011;1717;50.240;8.406;2024-03-08T04:54:15;27.13;;;17.93;;
3407;SDS011;1717;50.240;8.406;2024-03-08T04:56:42;26.93;;;18.37;;
3407;SDS011;1717;50.240;8.406;2024-03-08T04:59:10;28.27;;;17.40;;
3407;SDS011;1717;50.240;8.406;2024-03-08T05:01:38;27.70;;;17.70;;
3407;SDS011;1717;50.240;8.406;2024-03-08T05:04:05;26.67;;;17.30;;
3407;SDS011;1717;50.240;8.406;2024-03-08T05:06:32;25.60;;;17.13;;
3407;SDS011;1717;50.240;8.406;2024-03-08T05:08:59;29.03;;;17.77;;
3407;SDS011;1717;50.240;8.406;2024-03-08T05:11:26;29.73;;;17.93;;
3407;SDS011;1717;50.240;8.406;2024-03-08T05:13:52;27.90;;;18.53;;
3407;SDS011;1717;50.240;8.406;2024-03-08T05:16:21;28.70;;;19.07;;
3407;SDS011;1717;50.240;8.406;2024-03-08T05:18:49;31.47;;;18.50;;
3407;SDS011;1717;50.240;8.406;2024-03-08T05:21:16;29.77;;;18.50;;
3407;SDS011;1717;50.240;8.406;2024-03-08T05:23:45;30.60;;;18.13;;
3407;SDS011;1717;50.240;8.406;2024-03-08T05:26:12;28.40;;;18.63;;
3407;SDS011;1717;50.240;8.406;2024-03-08T05:28:40;31.93;;;18.87;;
3407;SDS011;1717;50.240;8.406;2024-03-08T05:31:07;26.87;;;17.10;;
3407;SDS011;1717;50.240;8.406;2024-03-08T05:33:35;25.60;;;18.03;;
3407;SDS011;1717;50.240;8.406;2024-03-08T05:36:02;30.37;;;16.87;;
3407;SDS011;1717;50.240;8.406;2024-03-08T05:38:31;28.90;;;20.67;;
3407;SDS011;1717;50.240;8.406;2024-03-08T05:40:58;27.43;;;18.13;;
3407;SDS011;1717;50.240;8.406;2024-03-08T05:43:25;28.90;;;18.97;;
3407;SDS011;1717;50.240;8.406;2024-03-08T05:45:51;29.93;;;17.90;;
3407;SDS011;1717;50.240;8.406;2024-03-08T05:48:18;27.33;;;18.13;;
3407;SDS011;1717;50.240;8.406;2024-03-08T05:50:46;32.17;;;19.00;;
3407;SDS011;1717;50.240;8.406;2024-03-08T05:53:13;34.10;;;20.50;;
3407;SDS011;1717;50.240;8.406;2024-03-08T05:55:40;28.77;;;20.07;;
3407;SDS011;1717;50.240;8.406;2024-03-08T05:58:07;31.67;;;20.67;;
3407;SDS011;1717;50.240;8.406;2024-03-08T06:00:36;32.97;;;18.90;;
3407;SDS011;1717;50.240;8.406;2024-03-08T06:03:03;32.67;;;20.07;;
3407;SDS011;1717;50.240;8.406;2024-03-08T06:05:30;30.57;;;19.53;;
3407;SDS011;1717;50.240;8.406;2024-03-08T06:07:58;28.03;;;17.13;;
3407;SDS011;1717;50.240;8.406;2024-03-08T06:10:25;24.87;;;16.60;;
3407;SDS011;1717;50.240;8.406;2024-03-08T06:12:52;32.53;;;19.57;;
3407;SDS011;1717;50.240;8.406;2024-03-08T06:15:19;28.93;;;19.17;;
3407;SDS011;1717;50.240;8.406;2024-03-08T06:17:46;29.77;;;18.90;;
3407;SDS011;1717;50.240;8.406;2024-03-08T06:20:13;33.27;;;18.60;;
3407;SDS011;1717;50.240;8.406;2024-03-08T06:22:40;31.17;;;17.37;;
3407;SDS011;1717;50.240;8.406;2024-03-08T06:25:09;28.37;;;17.60;;
3407;SDS011;1717;50.240;8.406;2024-03-08T06:27:39;24.50;;;17.30;;
3407;SDS011;1717;50.240;8.406;2024-03-08T06:30:07;29.47;;;17.60;;
3407;SDS011;1717;50.240;8.406;2024-03-08T06:32:35;27.63;;;18.43;;
3407;SDS011;1717;50.240;8.406;2024-03-08T06:35:02;28.27;;;17.47;;
3407;SDS011;1717;50.240;8.406;2024-03-08T06:37:31;29.93;;;17.33;;
3407;SDS011;1717;50.240;8.406;2024-03-08T06:39:58;23.80;;;16.77;;
3407;SDS011;1717;50.240;8.406;2024-03-08T06:42:27;31.30;;;17.40;;
3407;SDS011;1717;50.240;8.406;2024-03-08T06:44:54;30.30;;;18.37;;
3407;SDS011;1717;50.240;8.406;2024-03-08T06:47:28;32.73;;;18.37;;
3407;SDS011;1717;50.240;8.406;2024-03-08T06:49:55;26.13;;;15.93;;
3407;SDS011;1717;50.240;8.406;2024-03-08T06:52:22;29.80;;;17.83;;
3407;SDS011;1717;50.240;8.406;2024-03-08T06:54:48;27.70;;;18.90;;
3407;SDS011;1717;50.240;8.406;2024-03-08T06:57:17;33.83;;;18.87;;
3407;SDS011;1717;50.240;8.406;2024-03-08T06:59:48;31.80;;;18.17;;
3407;SDS011;1717;50.240;8.406;2024-03-08T07:02:17;28.43;;;18.47;;
3407;SDS011;1717;50.240;8.406;2024-03-08T07:04:44;24.40;;;18.00;;
3407;SDS011;1717;50.240;8.406;2024-03-08T07:07:10;29.93;;;17.80;;
3407;SDS011;1717;50.240;8.406;2024-03-08T07:09:37;29.70;;;17.23;;
3407;SDS011;1717;50.240;8.406;2024-03-08T07:12:04;27.97;;;17.93;;
3407;SDS011;1717;50.240;8.406;2024-03-08T07:14:32;27.33;;;16.90;;
3407;SDS011;1717;50.240;8.406;2024-03-08T07:17:00;22.33;;;15.77;;
3407;SDS011;1717;50.240;8.406;2024-03-08T07:19:27;29.10;;;18.60;;
3407;SDS011;1717;50.240;8.406;2024-03-08T07:21:54;28.57;;;17.87;;
3407;SDS011;1717;50.240;8.406;2024-03-08T07:24:21;25.73;;;17.77;;
3407;SDS011;1717;50.240;8.406;2024-03-08T07:27:05;29.07;;;19.03;;
3407;SDS011;1717;50.240;8.406;2024-03-08T07:29:32;28.83;;;17.30;;
3407;SDS011;1717;50.240;8.406;2024-03-08T07:32:00;32.27;;;18.47;;
3407;SDS011;1717;50.240;8.406;2024-03-08T07:34:39;29.13;;;17.63;;
3407;SDS011;1717;50.240;8.406;2024-03-08T07:37:06;27.53;;;18.50;;
3407;SDS011;1717;50.240;8.406;2024-03-08T07:39:36;33.23;;;19.30;;
3407;SDS011;1717;50.240;8.406;2024-03-08T07:42:04;33.57;;;17.90;;
3407;SDS011;1717;50.240;8.406;2024-03-08T07:44:31;27.37;;;18.60;;
3407;SDS011;1717;50.240;8.406;2024-03-08T07:46:58;28.47;;;17.50;;
3407;SDS011;1717;50.240;8.406;2024-03-08T07:49:26;30.70;;;18.10;;
3407;SDS011;1717;50.240;8.406;2024-03-08T07:51:53;31.57;;;19.30;;
3407;SDS011;1717;50.240;8.406;2024-03-08T07:54:20;31.10;;;17.77;;
3407;SDS011;1717;50.240;8.406;2024-03-08T07:56:47;28.83;;;17.93;;
3407;SDS011;1717;50.240;8.406;2024-03-08T07:59:16;26.47;;;17.90;;
3407;SDS011;1717;50.240;8.406;2024-03-08T08:01:43;29.90;;;17.47;;
3407;SDS011;1717;50.240;8.406;2024-03-08T08:04:12;34.03;;;18.53;;
3407;SDS011;1717;50.240;8.406;2024-03-08T08:06:41;25.60;;;17.47;;
3407;SDS011;1717;50.240;8.406;2024-03-08T08:09:07;27.60;;;17.10;;
3407;SDS011;1717;50.240;8.406;2024-03-08T08:11:39;29.67;;;18.80;;
3407;SDS011;1717;50.240;8.406;2024-03-08T08:14:08;24.17;;;16.07;;
3407;SDS011;1717;50.240;8.406;2024-03-08T08:16:35;29.43;;;17.87;;
3407;SDS011;1717;50.240;8.406;2024-03-08T08:19:02;26.93;;;17.07;;
3407;SDS011;1717;50.240;8.406;2024-03-08T08:21:32;27.57;;;18.07;;
3407;SDS011;1717;50.240;8.406;2024-03-08T08:24:01;30.07;;;17.80;;
3407;SDS011;1717;50.240;8.406;2024-03-08T08:26:28;22.67;;;15.77;;
3407;SDS011;1717;50.240;8.406;2024-03-08T08:28:55;26.93;;;16.90;;
3407;SDS011;1717;50.240;8.406;2024-03-08T08:31:22;25.87;;;16.40;;
3407;SDS011;1717;50.240;8.406;2024-03-08T08:33:49;24.77;;;16.77;;
3407;SDS011;1717;50.240;8.406;2024-03-08T08:36:21;25.60;;;17.17;;
3407;SDS011;1717;50.240;8.406;2024-03-08T08:38:47;29.40;;;18.43;;
3407;SDS011;1717;50.240;8.406;2024-03-08T08:41:16;24.50;;;16.90;;
3407;SDS011;1717;50.240;8.406;2024-03-08T08:43:43;28.60;;;16.90;;
3407;SDS011;1717;50.240;8.406;2024-03-08T08:46:10;27.63;;;16.50;;
3407;SDS011;1717;50.240;8.406;2024-03-08T08:48:38;23.93;;;16.97;;
3407;SDS011;1717;50.240;8.406;2024-03-08T08:51:06;25.53;;;17.43;;
3407;SDS011;1717;50.240;8.406;2024-03-08T08:53:37;27.33;;;17.00;;
3407;SDS011;1717;50.240;8.406;2024-03-08T08:56:06;26.30;;;16.33;;
3407;SDS011;1717;50.240;8.406;2024-03-08T08:58:34;29.00;;;18.20;;
3407;SDS011;1717;50.240;8.406;2024-03-08T09:01:01;29.90;;;17.57;;
3407;SDS011;1717;50.240;8.406;2024-03-08T09:03:30;26.17;;;17.00;;
3407;SDS011;1717;50.240;8.406;2024-03-08T09:05:59;25.80;;;16.43;;
3407;SDS011;1717;50.240;8.406;2024-03-08T09:08:27;21.80;;;16.33;;
3407;SDS011;1717;50.240;8.406;2024-03-08T09:10:55;26.57;;;17.87;;
3407;SDS011;1717;50.240;8.406;2024-03-08T09:13:22;24.73;;;17.37;;
3407;SDS011;1717;50.240;8.406;2024-03-08T09:15:50;23.93;;;16.53;;
3407;SDS011;1717;50.240;8.406;2024-03-08T09:18:17;27.20;;;17.90;;
3407;SDS011;1717;50.240;8.406;2024-03-08T09:20:45;25.60;;;17.43;;
3407;SDS011;1717;50.240;8.406;2024-03-08T09:23:12;31.27;;;18.17;;
3407;SDS011;1717;50.240;8.406;2024-03-08T09:25:40;29.77;;;19.17;;
3407;SDS011;1717;50.240;8.406;2024-03-08T09:28:07;25.07;;;18.20;;
3407;SDS011;1717;50.240;8.406;2024-03-08T09:30:36;25.77;;;17.73;;
3407;SDS011;1717;50.240;8.406;2024-03-08T09:33:05;27.43;;;19.23;;
3407;SDS011;1717;50.240;8.406;2024-03-08T09:35:33;26.17;;;17.70;;
3407;SDS011;1717;50.240;8.406;2024-03-08T09:38:00;25.60;;;17.73;;
3407;SDS011;1717;50.240;8.406;2024-03-08T09:40:30;27.90;;;18.70;;
3407;SDS011;1717;50.240;8.406;2024-03-08T09:42:57;25.50;;;17.40;;
3407;SDS011;1717;50.240;8.406;2024-03-08T09:45:24;23.93;;;17.07;;
3407;SDS011;1717;50.240;8.406;2024-03-08T09:47:52;23.00;;;16.03;;
3407;SDS011;1717;50.240;8.406;2024-03-08T09:50:21;24.27;;;19.23;;
3407;SDS011;1717;50.240;8.406;2024-03-08T09:52:48;24.10;;;16.97;;
3407;SDS011;1717;50.240;8.406;2024-03-08T09:55:15;22.03;;;16.40;;
3407;SDS011;1717;50.240;8.406;2024-03-08T09:57:47;25.63;;;17.93;;
3407;SDS011;1717;50.240;8.406;2024-03-08T10:00:28;23.60;;;16.57;;
3407;SDS011;1717;50.240;8.406;2024-03-08T10:02:59;25.87;;;17.47;;
3407;SDS011;1717;50.240;8.406;2024-03-08T10:05:28;32.00;;;18.43;;
3407;SDS011;1717;50.240;8.406;2024-03-08T10:07:58;25.70;;;16.30;;
3407;SDS011;1717;50.240;8.406;2024-03-08T10:10:26;24.73;;;16.47;;
3407;SDS011;1717;50.240;8.406;2024-03-08T10:12:53;23.33;;;16.43;;
3407;SDS011;1717;50.240;8.406;2024-03-08T10:15:21;26.27;;;15.87;;
3407;SDS011;1717;50.240;8.406;2024-03-08T10:17:49;25.03;;;16.97;;
3407;SDS011;1717;50.240;8.406;2024-03-08T10:20:16;23.87;;;16.20;;
3407;SDS011;1717;50.240;8.406;2024-03-08T10:22:46;24.67;;;16.13;;
3407;SDS011;1717;50.240;8.406;2024-03-08T10:25:14;23.70;;;16.07;;
3407;SDS011;1717;50.240;8.406;2024-03-08T10:27:42;23.33;;;16.20;;
3407;SDS011;1717;50.240;8.406;2024-03-08T10:30:10;23.07;;;16.00;;
3407;SDS011;1717;50.240;8.406;2024-03-08T10:32:40;23.87;;;15.70;;
3407;SDS011;1717;50.240;8.406;2024-03-08T10:35:07;24.40;;;16.67;;
3407;SDS011;1717;50.240;8.406;2024-03-08T10:37:37;23.63;;;16.93;;
3407;SDS011;1717;50.240;8.406;2024-03-08T10:40:15;28.50;;;18.43;;
3407;SDS011;1717;50.240;8.406;2024-03-08T10:42:47;23.43;;;16.90;;
3407;SDS011;1717;50.240;8.406;2024-03-08T10:45:21;20.50;;;14.47;;
3407;SDS011;1717;50.240;8.406;2024-03-08T10:48:00;25.80;;;17.10;;
3407;SDS011;1717;50.240;8.406;2024-03-08T10:50:36;21.00;;;15.70;;
3407;SDS011;1717;50.240;8.406;2024-03-08T10:53:05;21.40;;;15.77;;
3407;SDS011;1717;50.240;8.406;2024-03-08T10:55:33;22.77;;;15.67;;
3407;SDS011;1717;50.240;8.406;2024-03-08T10:58:03;31.33;;;16.63;;
3407;SDS011;1717;50.240;8.406;2024-03-08T11:00:31;23.10;;;16.73;;
3407;SDS011;1717;50.240;8.406;2024-03-08T11:02:58;27.10;;;16.60;;
3407;SDS011;1717;50.240;8.406;2024-03-08T11:05:31;23.33;;;15.90;;
3407;SDS011;1717;50.240;8.406;2024-03-08T11:08:03;24.73;;;17.23;;
3407;SDS011;1717;50.240;8.406;2024-03-08T11:10:46;22.07;;;15.90;;
3407;SDS011;1717;50.240;8.406;2024-03-08T11:16:01;25.20;;;15.80;;
3407;SDS011;1717;50.240;8.406;2024-03-08T11:18:32;21.60;;;16.30;;
3407;SDS011;1717;50.240;8.406;2024-03-08T11:21:01;23.80;;;15.80;;
3407;SDS011;1717;50.240;8.406;2024-03-08T11:23:33;26.83;;;15.13;;
3407;SDS011;1717;50.240;8.406;2024-03-08T11:26:01;21.33;;;14.17;;
3407;SDS011;1717;50.240;8.406;2024-03-08T11:28:32;20.57;;;14.70;;
3407;SDS011;1717;50.240;8.406;2024-03-08T11:33:51;21.90;;;14.17;;
3407;SDS011;1717;50.240;8.406;2024-03-08T11:36:20;22.63;;;14.67;;
3407;SDS011;1717;50.240;8.406;2024-03-08T11:38:49;20.73;;;14.80;;
3407;SDS011;1717;50.240;8.406;2024-03-08T11:41:18;25.27;;;15.47;;
3407;SDS011;1717;50.240;8.406;2024-03-08T11:43:46;21.73;;;14.20;;
3407;SDS011;1717;50.240;8.406;2024-03-08T11:46:14;21.03;;;14.73;;
3407;SDS011;1717;50.240;8.406;2024-03-08T11:48:42;19.87;;;14.57;;
3407;SDS011;1717;50.240;8.406;2024-03-08T11:51:10;19.67;;;14.50;;
3407;SDS011;1717;50.240;8.406;2024-03-08T11:53:38;20.20;;;14.00;;
3407;SDS011;1717;50.240;8.406;2024-03-08T11:56:08;20.73;;;14.33;;
3407;SDS011;1717;50.240;8.406;2024-03-08T11:58:36;22.20;;;14.50;;
3407;SDS011;1717;50.240;8.406;2024-03-08T12:01:04;17.17;;;12.80;;
3407;SDS011;1717;50.240;8.406;2024-03-08T12:03:32;16.13;;;12.57;;
3407;SDS011;1717;50.240;8.406;2024-03-08T12:06:00;19.00;;;14.10;;
3407;SDS011;1717;50.240;8.406;2024-03-08T12:08:28;20.40;;;13.93;;
3407;SDS011;1717;50.240;8.406;2024-03-08T12:10:57;24.53;;;16.00;;
3407;SDS011;1717;50.240;8.406;2024-03-08T12:13:27;19.47;;;14.10;;
3407;SDS011;1717;50.240;8.406;2024-03-08T12:15:56;18.27;;;13.40;;
3407;SDS011;1717;50.240;8.406;2024-03-08T12:18:24;23.17;;;14.73;;
3407;SDS011;1717;50.240;8.406;2024-03-08T12:21:03;17.13;;;13.33;;
3407;SDS011;1717;50.240;8.406;2024-03-08T12:23:32;21.43;;;13.77;;
3407;SDS011;1717;50.240;8.406;2024-03-08T12:26:08;18.90;;;13.57;;
3407;SDS011;1717;50.240;8.406;2024-03-08T12:28:39;17.37;;;12.97;;
3407;SDS011;1717;50.240;8.406;2024-03-08T12:31:07;20.30;;;14.10;;
3407;SDS011;1717;50.240;8.406;2024-03-08T12:33:36;16.63;;;12.50;;
3407;SDS011;1717;50.240;8.406;2024-03-08T12:36:03;18.90;;;12.87;;
3407;SDS011;1717;50.240;8.406;2024-03-08T12:38:32;18.90;;;12.53;;
3407;SDS011;1717;50.240;8.406;2024-03-08T12:41:01;17.03;;;12.23;;
3407;SDS011;1717;50.240;8.406;2024-03-08T12:43:28;18.60;;;13.67;;
3407;SDS011;1717;50.240;8.406;2024-03-08T12:45:58;19.73;;;13.47;;
3407;SDS011;1717;50.240;8.406;2024-03-08T12:48:24;20.30;;;12.47;;
3407;SDS011;1717;50.240;8.406;2024-03-08T12:50:52;16.83;;;12.37;;
3407;SDS011;1717;50.240;8.406;2024-03-08T12:53:19;18.30;;;12.80;;
3407;SDS011;1717;50.240;8.406;2024-03-08T12:55:48;16.27;;;12.27;;
3407;SDS011;1717;50.240;8.406;2024-03-08T12:58:15;19.03;;;12.50;;
3407;SDS011;1717;50.240;8.406;2024-03-08T13:00:42;15.40;;;12.00;;
3407;SDS011;1717;50.240;8.406;2024-03-08T13:03:10;19.47;;;13.37;;
3407;SDS011;1717;50.240;8.406;2024-03-08T13:05:37;15.67;;;12.37;;
3407;SDS011;1717;50.240;8.406;2024-03-08T13:08:07;19.80;;;13.83;;
3407;SDS011;1717;50.240;8.406;2024-03-08T13:10:38;19.80;;;13.97;;
3407;SDS011;1717;50.240;8.406;2024-03-08T13:13:05;13.70;;;11.97;;
3407;SDS011;1717;50.240;8.406;2024-03-08T13:15:34;15.37;;;11.67;;
3407;SDS011;1717;50.240;8.406;2024-03-08T13:18:01;17.87;;;13.53;;
3407;SDS011;1717;50.240;8.406;2024-03-08T13:20:32;18.20;;;12.23;;
3407;SDS011;1717;50.240;8.406;2024-03-08T13:23:02;17.23;;;13.00;;
3407;SDS011;1717;50.240;8.406;2024-03-08T13:25:30;18.10;;;13.00;;
3407;SDS011;1717;50.240;8.406;2024-03-08T13:27:56;19.20;;;14.10;;
3407;SDS011;1717;50.240;8.406;2024-03-08T13:30:25;19.10;;;13.77;;
3407;SDS011;1717;50.240;8.406;2024-03-08T13:32:52;18.20;;;13.40;;
3407;SDS011;1717;50.240;8.406;2024-03-08T13:35:19;16.47;;;12.30;;
3407;SDS011;1717;50.240;8.406;2024-03-08T13:37:50;19.77;;;13.23;;
3407;SDS011;1717;50.240;8.406;2024-03-08T13:40:17;18.40;;;13.63;;
3407;SDS011;1717;50.240;8.406;2024-03-08T13:42:45;21.03;;;14.83;;
3407;SDS011;1717;50.240;8.406;2024-03-08T13:45:12;19.10;;;13.47;;
3407;SDS011;1717;50.240;8.406;2024-03-08T13:47:42;21.70;;;14.20;;
3407;SDS011;1717;50.240;8.406;2024-03-08T13:50:11;19.77;;;14.50;;
3407;SDS011;1717;50.240;8.406;2024-03-08T13:52:41;17.67;;;13.77;;
3407;SDS011;1717;50.240;8.406;2024-03-08T13:55:10;19.27;;;14.80;;
3407;SDS011;1717;50.240;8.406;2024-03-08T13:57:37;21.20;;;13.57;;
3407;SDS011;1717;50.240;8.406;2024-03-08T14:00:05;19.73;;;13.17;;
3407;SDS011;1717;50.240;8.406;2024-03-08T14:02:33;20.87;;;14.10;;
3407;SDS011;1717;50.240;8.406;2024-03-08T14:05:00;24.53;;;15.10;;
3407;SDS011;1717;50.240;8.406;2024-03-08T14:07:27;20.13;;;15.83;;
3407;SDS011;1717;50.240;8.406;2024-03-08T14:09:54;19.73;;;15.50;;
3407;SDS011;1717;50.240;8.406;2024-03-08T14:12:23;18.80;;;15.00;;
3407;SDS011;1717;50.240;8.406;2024-03-08T14:14:51;19.80;;;13.80;;
3407;SDS011;1717;50.240;8.406;2024-03-08T14:17:18;21.60;;;14.30;;
3407;SDS011;1717;50.240;8.406;2024-03-08T14:19:45;18.67;;;14.47;;
3407;SDS011;1717;50.240;8.406;2024-03-08T14:22:12;19.27;;;14.23;;
3407;SDS011;1717;50.240;8.406;2024-03-08T14:24:39;20.70;;;14.00;;
3407;SDS011;1717;50.240;8.406;2024-03-08T14:27:07;23.60;;;15.77;;
3407;SDS011;1717;50.240;8.406;2024-03-08T14:29:36;19.57;;;14.40;;
3407;SDS011;1717;50.240;8.406;2024-03-08T14:32:03;17.23;;;12.83;;
3407;SDS011;1717;50.240;8.406;2024-03-08T14:34:31;21.23;;;15.23;;
3407;SDS011;1717;50.240;8.406;2024-03-08T14:36:59;21.60;;;14.20;;
3407;SDS011;1717;50.240;8.406;2024-03-08T14:39:26;18.10;;;13.73;;
3407;SDS011;1717;50.240;8.406;2024-03-08T14:41:54;19.07;;;14.83;;
3407;SDS011;1717;50.240;8.406;2024-03-08T14:44:23;21.90;;;16.10;;
3407;SDS011;1717;50.240;8.406;2024-03-08T14:46:52;19.50;;;14.93;;
3407;SDS011;1717;50.240;8.406;2024-03-08T14:49:19;21.73;;;13.40;;
3407;SDS011;1717;50.240;8.406;2024-03-08T14:51:46;20.07;;;15.70;;
3407;SDS011;1717;50.240;8.406;2024-03-08T14:54:13;18.00;;;13.80;;
3407;SDS011;1717;50.240;8.406;2024-03-08T14:56:40;22.37;;;15.90;;
3407;SDS011;1717;50.240;8.406;2024-03-08T14:59:08;19.07;;;14.60;;